sensor_id;sensor_type;location;lat;lon;timestamp;pressure;altitude;pressure_sealevel;temperature;humidity
75045;BME280;63614;56.026;35.960;2024-03-22T00:00:16;99606.66;;;0.06;49.62
75045;BME280;63614;56.026;35.960;2024-03-22T00:02:42;99605.03;;;0.05;49.49
75045;BME280;63614;56.026;35.960;2024-03-22T00:05:08;99606.53;;;-0.04;49.64
75045;BME280;63614;56.026;35.960;2024-03-22T00:07:34;99601.31;;;-0.03;49.68
75045;BME280;63614;56.026;35.960;2024-03-22T00:10:00;99602.00;;;-0.01;49.47
75045;BME280;63614;56.026;35.960;2024-03-22T00:12:25;99598.28;;;-0.08;49.74
75045;BME280;63614;56.026;35.960;2024-03-22T00:14:51;99596.41;;;-0.06;49.80
75045;BME280;63614;56.026;35.960;2024-03-22T00:17:21;99585.63;;;-0.09;49.70
75045;BME280;63614;56.026;35.960;2024-03-22T00:19:47;99588.41;;;-0.12;49.72
75045;BME280;63614;56.026;35.960;2024-03-22T00:22:13;99587.34;;;-0.10;49.56
75045;BME280;63614;56.026;35.960;2024-03-22T00:24:38;99581.75;;;-0.15;49.59
75045;BME280;63614;56.026;35.960;2024-03-22T00:27:04;99587.09;;;-0.18;49.65
75045;BME280;63614;56.026;35.960;2024-03-22T00:29:30;99589.53;;;-0.16;49.94
75045;BME280;63614;56.026;35.960;2024-03-22T00:31:56;99583.41;;;-0.14;49.88
75045;BME280;63614;56.026;35.960;2024-03-22T00:34:22;99588.03;;;-0.19;50.00
75045;BME280;63614;56.026;35.960;2024-03-22T00:36:48;99585.59;;;-0.21;50.12
75045;BME280;63614;56.026;35.960;2024-03-22T00:39:14;99578.25;;;-0.25;50.17
75045;BME280;63614;56.026;35.960;2024-03-22T00:41:40;99582.69;;;-0.16;50.47
75045;BME280;63614;56.026;35.960;2024-03-22T00:44:06;99583.03;;;-0.21;49.86
75045;BME280;63614;56.026;35.960;2024-03-22T00:46:31;99589.06;;;-0.22;50.36
75045;BME280;63614;56.026;35.960;2024-03-22T00:48:57;99589.75;;;-0.31;50.62
75045;BME280;63614;56.026;35.960;2024-03-22T00:51:25;99580.09;;;-0.27;50.53
75045;BME280;63614;56.026;35.960;2024-03-22T00:53:51;99585.22;;;-0.27;50.52
75045;BME280;63614;56.026;35.960;2024-03-22T00:56:17;99579.63;;;-0.32;51.02
75045;BME280;63614;56.026;35.960;2024-03-22T00:58:43;99580.19;;;-0.40;51.33
75045;BME280;63614;56.026;35.960;2024-03-22T01:01:08;99581.81;;;-0.39;51.48
75045;BME280;63614;56.026;35.960;2024-03-22T01:03:34;99576.81;;;-0.41;51.49
75045;BME280;63614;56.026;35.960;2024-03-22T01:06:00;99576.13;;;-0.43;51.46
75045;BME280;63614;56.026;35.960;2024-03-22T01:08:26;99572.75;;;-0.43;51.68
75045;BME280;63614;56.026;35.960;2024-03-22T01:10:52;99574.81;;;-0.48;51.88
75045;BME280;63614;56.026;35.960;2024-03-22T01:13:17;99571.09;;;-0.56;52.05
75045;BME280;63614;56.026;35.960;2024-03-22T01:15:43;99567.38;;;-0.51;52.14
75045;BME280;63614;56.026;35.960;2024-03-22T01:18:12;99569.03;;;-0.50;52.55
75045;BME280;63614;56.026;35.960;2024-03-22T01:20:38;99567.03;;;-0.58;52.23
75045;BME280;63614;56.026;35.960;2024-03-22T01:23:04;99567.47;;;-0.64;52.53
75045;BME280;63614;56.026;35.960;2024-03-22T01:25:30;99566.44;;;-0.62;52.97
75045;BME280;63614;56.026;35.960;2024-03-22T01:27:56;99550.53;;;-0.65;52.72
75045;BME280;63614;56.026;35.960;2024-03-22T01:30:22;99553.53;;;-0.60;53.00
75045;BME280;63614;56.026;35.960;2024-03-22T01:32:48;99551.09;;;-0.62;53.24
75045;BME280;63614;56.026;35.960;2024-03-22T01:35:14;99553.88;;;-0.65;53.33
75045;BME280;63614;56.026;35.960;2024-03-22T01:37:40;99548.31;;;-0.70;53.83
75045;BME280;63614;56.026;35.960;2024-03-22T01:40:08;99551.53;;;-0.68;53.89
75045;BME280;63614;56.026;35.960;2024-03-22T01:42:33;99535.53;;;-0.70;53.61
75045;BME280;63614;56.026;35.960;2024-03-22T01:44:59;99547.56;;;-0.72;54.09
75045;BME280;63614;56.026;35.960;2024-03-22T01:47:26;99545.34;;;-0.77;54.40
75045;BME280;63614;56.026;35.960;2024-03-22T01:49:53;99539.88;;;-0.83;54.25
75045;BME280;63614;56.026;35.960;2024-03-22T01:52:20;99528.41;;;-0.78;54.57
75045;BME280;63614;56.026;35.960;2024-03-22T01:54:46;99536.06;;;-0.78;54.50
75045;BME280;63614;56.026;35.960;2024-03-22T01:57:12;99539.75;;;-0.82;54.87
75045;BME280;63614;56.026;35.960;2024-03-22T01:59:38;99531.19;;;-0.81;54.92
75045;BME280;63614;56.026;35.960;2024-03-22T02:02:05;99535.09;;;-0.88;55.27
75045;BME280;63614;56.026;35.960;2024-03-22T02:04:31;99538.47;;;-0.87;55.59
75045;BME280;63614;56.026;35.960;2024-03-22T02:06:57;99538.38;;;-0.86;55.34
75045;BME280;63614;56.026;35.960;2024-03-22T02:09:23;99528.50;;;-0.90;55.61
75045;BME280;63614;56.026;35.960;2024-03-22T02:11:49;99524.50;;;-0.95;55.39
75045;BME280;63614;56.026;35.960;2024-03-22T02:14:15;99516.03;;;-0.95;55.48
75045;BME280;63614;56.026;35.960;2024-03-22T02:16:41;99525.56;;;-0.97;55.51
75045;BME280;63614;56.026;35.960;2024-03-22T02:19:08;99526.75;;;-0.90;55.68
75045;BME280;63614;56.026;35.960;2024-03-22T02:21:34;99504.19;;;-0.96;55.67
75045;BME280;63614;56.026;35.960;2024-03-22T02:24:00;99513.50;;;-0.95;55.91
75045;BME280;63614;56.026;35.960;2024-03-22T02:26:26;99506.59;;;-1.06;56.13
75045;BME280;63614;56.026;35.960;2024-03-22T02:28:52;99496.59;;;-1.09;56.41
75045;BME280;63614;56.026;35.960;2024-03-22T02:31:18;99505.34;;;-1.00;56.23
75045;BME280;63614;56.026;35.960;2024-03-22T02:33:46;99501.38;;;-1.04;55.80
75045;BME280;63614;56.026;35.960;2024-03-22T02:36:11;99510.69;;;-1.03;55.76
75045;BME280;63614;56.026;35.960;2024-03-22T02:38:37;99502.81;;;-1.00;56.20
75045;BME280;63614;56.026;35.960;2024-03-22T02:41:03;99509.84;;;-1.04;56.35
75045;BME280;63614;56.026;35.960;2024-03-22T02:43:29;99502.03;;;-1.14;56.38
75045;BME280;63614;56.026;35.960;2024-03-22T02:45:55;99489.78;;;-1.08;56.00
75045;BME280;63614;56.026;35.960;2024-03-22T02:48:21;99482.34;;;-1.12;56.10
75045;BME280;63614;56.026;35.960;2024-03-22T02:50:47;99478.97;;;-1.12;56.38
75045;BME280;63614;56.026;35.960;2024-03-22T02:53:13;99479.06;;;-1.14;56.40
75045;BME280;63614;56.026;35.960;2024-03-22T02:55:39;99478.25;;;-1.14;56.03
75045;BME280;63614;56.026;35.960;2024-03-22T02:58:07;99479.50;;;-1.20;56.50
75045;BME280;63614;56.026;35.960;2024-03-22T03:00:37;99477.34;;;-1.13;55.92
75045;BME280;63614;56.026;35.960;2024-03-22T03:03:05;99480.00;;;-1.15;56.30
75045;BME280;63614;56.026;35.960;2024-03-22T03:05:31;99480.69;;;-1.13;55.81
75045;BME280;63614;56.026;35.960;2024-03-22T03:07:56;99481.03;;;-1.17;56.36
75045;BME280;63614;56.026;35.960;2024-03-22T03:10:22;99473.47;;;-1.19;56.37
75045;BME280;63614;56.026;35.960;2024-03-22T03:12:48;99472.31;;;-1.26;56.08
75045;BME280;63614;56.026;35.960;2024-03-22T03:15:15;99480.06;;;-1.27;56.39
75045;BME280;63614;56.026;35.960;2024-03-22T03:17:42;99479.34;;;-1.30;56.23
75045;BME280;63614;56.026;35.960;2024-03-22T03:20:08;99474.25;;;-1.30;56.17
75045;BME280;63614;56.026;35.960;2024-03-22T03:22:40;99476.78;;;-1.30;56.37
75045;BME280;63614;56.026;35.960;2024-03-22T03:25:07;99474.47;;;-1.33;56.37
75045;BME280;63614;56.026;35.960;2024-03-22T03:27:34;99477.41;;;-1.26;56.30
75045;BME280;63614;56.026;35.960;2024-03-22T03:30:01;99468.13;;;-1.27;56.22
75045;BME280;63614;56.026;35.960;2024-03-22T03:32:31;99468.69;;;-1.23;56.41
75045;BME280;63614;56.026;35.960;2024-03-22T03:34:56;99473.53;;;-1.32;56.15
75045;BME280;63614;56.026;35.960;2024-03-22T03:37:22;99460.53;;;-1.40;56.33
75045;BME280;63614;56.026;35.960;2024-03-22T03:39:48;99466.22;;;-1.36;56.38
75045;BME280;63614;56.026;35.960;2024-03-22T03:42:14;99465.56;;;-1.27;56.39
75045;BME280;63614;56.026;35.960;2024-03-22T03:44:40;99462.72;;;-1.11;55.94
75045;BME280;63614;56.026;35.960;2024-03-22T03:47:07;99463.38;;;-0.85;54.94
75045;BME280;63614;56.026;35.960;2024-03-22T03:49:34;99461.91;;;-0.65;54.33
75045;BME280;63614;56.026;35.960;2024-03-22T03:51:59;99458.13;;;-0.37;53.45
75045;BME280;63614;56.026;35.960;2024-03-22T03:54:25;99453.56;;;0.01;52.76
75045;BME280;63614;56.026;35.960;2024-03-22T03:56:51;99449.00;;;0.16;51.86
75045;BME280;63614;56.026;35.960;2024-03-22T03:59:17;99448.16;;;0.38;51.02
75045;BME280;63614;56.026;35.960;2024-03-22T04:01:43;99452.94;;;0.64;50.51
75045;BME280;63614;56.026;35.960;2024-03-22T04:04:09;99449.78;;;0.71;50.36
75045;BME280;63614;56.026;35.960;2024-03-22T04:06:35;99445.81;;;0.79;49.85
75045;BME280;63614;56.026;35.960;2024-03-22T04:09:01;99440.69;;;1.00;49.00
75045;BME280;63614;56.026;35.960;2024-03-22T04:11:28;99435.50;;;1.53;47.99
75045;BME280;63614;56.026;35.960;2024-03-22T04:13:54;99440.72;;;1.83;47.39
75045;BME280;63614;56.026;35.960;2024-03-22T04:16:21;99438.47;;;1.99;47.00
75045;BME280;63614;56.026;35.960;2024-03-22T04:18:47;99439.91;;;2.52;46.28
75045;BME280;63614;56.026;35.960;2024-03-22T04:21:13;99437.88;;;2.85;45.15
75045;BME280;63614;56.026;35.960;2024-03-22T04:23:39;99441.13;;;2.77;45.43
75045;BME280;63614;56.026;35.960;2024-03-22T04:26:04;99437.28;;;3.30;44.14
75045;BME280;63614;56.026;35.960;2024-03-22T04:28:30;99440.50;;;3.42;43.64
75045;BME280;63614;56.026;35.960;2024-03-22T04:31:01;99435.66;;;3.67;43.24
75045;BME280;63614;56.026;35.960;2024-03-22T04:33:28;99427.78;;;4.06;42.33
75045;BME280;63614;56.026;35.960;2024-03-22T04:35:54;99419.84;;;4.35;42.17
75045;BME280;63614;56.026;35.960;2024-03-22T04:38:20;99420.00;;;4.33;41.43
75045;BME280;63614;56.026;35.960;2024-03-22T04:40:46;99407.28;;;4.68;40.91
75045;BME280;63614;56.026;35.960;2024-03-22T04:43:12;99414.00;;;5.05;40.13
75045;BME280;63614;56.026;35.960;2024-03-22T04:45:38;99428.31;;;5.60;39.05
75045;BME280;63614;56.026;35.960;2024-03-22T04:48:04;99429.50;;;5.74;38.96
75045;BME280;63614;56.026;35.960;2024-03-22T04:50:31;99432.81;;;5.92;38.66
75045;BME280;63614;56.026;35.960;2024-03-22T04:52:57;99426.94;;;5.74;38.77
75045;BME280;63614;56.026;35.960;2024-03-22T04:55:23;99436.00;;;5.78;38.26
75045;BME280;63614;56.026;35.960;2024-03-22T04:57:51;99427.41;;;5.69;38.65
75045;BME280;63614;56.026;35.960;2024-03-22T05:00:17;99422.34;;;5.94;38.37
75045;BME280;63614;56.026;35.960;2024-03-22T05:02:43;99419.69;;;6.20;38.02
75045;BME280;63614;56.026;35.960;2024-03-22T05:05:08;99413.72;;;6.11;38.31
75045;BME280;63614;56.026;35.960;2024-03-22T05:07:35;99409.09;;;6.48;37.08
75045;BME280;63614;56.026;35.960;2024-03-22T05:10:01;99401.03;;;6.59;37.63
75045;BME280;63614;56.026;35.960;2024-03-22T05:12:31;99397.94;;;6.55;37.14
75045;BME280;63614;56.026;35.960;2024-03-22T05:14:59;99408.44;;;6.87;37.02
75045;BME280;63614;56.026;35.960;2024-03-22T05:17:25;99407.06;;;7.32;36.03
75045;BME280;63614;56.026;35.960;2024-03-22T05:19:50;99405.03;;;7.03;36.24
75045;BME280;63614;56.026;35.960;2024-03-22T05:22:18;99394.13;;;7.32;36.05
75045;BME280;63614;56.026;35.960;2024-03-22T05:24:46;99392.44;;;6.91;36.56
75045;BME280;63614;56.026;35.960;2024-03-22T05:27:11;99397.13;;;6.96;36.84
75045;BME280;63614;56.026;35.960;2024-03-22T05:29:38;99397.59;;;6.67;37.49
75045;BME280;63614;56.026;35.960;2024-03-22T05:32:04;99390.63;;;6.18;38.52
75045;BME280;63614;56.026;35.960;2024-03-22T05:34:30;99403.28;;;5.95;38.96
75045;BME280;63614;56.026;35.960;2024-03-22T05:36:56;99389.16;;;5.64;39.80
75045;BME280;63614;56.026;35.960;2024-03-22T05:39:21;99387.56;;;5.37;40.33
75045;BME280;63614;56.026;35.960;2024-03-22T05:41:47;99391.34;;;5.17;41.50
75045;BME280;63614;56.026;35.960;2024-03-22T05:44:13;99385.97;;;4.84;42.10
75045;BME280;63614;56.026;35.960;2024-03-22T05:46:39;99395.84;;;4.70;42.30
75045;BME280;63614;56.026;35.960;2024-03-22T05:49:05;99384.47;;;4.37;42.77
75045;BME280;63614;56.026;35.960;2024-03-22T05:51:30;99385.50;;;4.26;43.95
75045;BME280;63614;56.026;35.960;2024-03-22T05:53:56;99381.38;;;3.97;44.61
75045;BME280;63614;56.026;35.960;2024-03-22T05:56:22;99387.59;;;3.95;44.63
75045;BME280;63614;56.026;35.960;2024-03-22T05:58:48;99391.19;;;3.84;45.13
75045;BME280;63614;56.026;35.960;2024-03-22T06:01:14;99397.00;;;3.86;45.49
75045;BME280;63614;56.026;35.960;2024-03-22T06:03:40;99393.84;;;3.92;45.09
75045;BME280;63614;56.026;35.960;2024-03-22T06:06:06;99392.97;;;4.02;45.27
75045;BME280;63614;56.026;35.960;2024-03-22T06:08:32;99392.09;;;4.11;45.28
75045;BME280;63614;56.026;35.960;2024-03-22T06:11:00;99389.63;;;4.19;45.45
75045;BME280;63614;56.026;35.960;2024-03-22T06:13:26;99390.78;;;4.07;45.17
75045;BME280;63614;56.026;35.960;2024-03-22T06:15:53;99383.66;;;4.18;44.81
75045;BME280;63614;56.026;35.960;2024-03-22T06:18:19;99378.38;;;4.20;44.87
75045;BME280;63614;56.026;35.960;2024-03-22T06:20:45;99368.38;;;4.17;45.05
75045;BME280;63614;56.026;35.960;2024-03-22T06:23:11;99357.16;;;4.08;45.31
75045;BME280;63614;56.026;35.960;2024-03-22T06:25:37;99358.56;;;4.21;45.85
75045;BME280;63614;56.026;35.960;2024-03-22T06:28:03;99360.13;;;4.31;45.27
75045;BME280;63614;56.026;35.960;2024-03-22T06:30:28;99353.25;;;4.40;45.59
75045;BME280;63614;56.026;35.960;2024-03-22T06:32:54;99359.09;;;4.42;44.98
75045;BME280;63614;56.026;35.960;2024-03-22T06:35:21;99352.25;;;4.33;45.23
75045;BME280;63614;56.026;35.960;2024-03-22T06:37:48;99352.84;;;4.27;45.13
75045;BME280;63614;56.026;35.960;2024-03-22T06:40:14;99349.81;;;4.31;45.04
75045;BME280;63614;56.026;35.960;2024-03-22T06:42:41;99349.31;;;4.46;44.94
75045;BME280;63614;56.026;35.960;2024-03-22T06:45:07;99342.66;;;4.61;45.07
75045;BME280;63614;56.026;35.960;2024-03-22T06:47:33;99343.22;;;4.73;45.31
75045;BME280;63614;56.026;35.960;2024-03-22T06:49:59;99343.22;;;4.73;44.94
75045;BME280;63614;56.026;35.960;2024-03-22T06:52:25;99340.34;;;4.76;44.67
75045;BME280;63614;56.026;35.960;2024-03-22T06:54:51;99339.94;;;4.89;44.10
75045;BME280;63614;56.026;35.960;2024-03-22T06:57:18;99337.00;;;4.84;43.95
75045;BME280;63614;56.026;35.960;2024-03-22T06:59:44;99336.34;;;4.82;44.05
75045;BME280;63614;56.026;35.960;2024-03-22T07:02:09;99324.28;;;4.82;44.06
75045;BME280;63614;56.026;35.960;2024-03-22T07:04:35;99320.13;;;4.89;44.33
75045;BME280;63614;56.026;35.960;2024-03-22T07:07:01;99335.97;;;4.95;44.01
75045;BME280;63614;56.026;35.960;2024-03-22T07:09:27;99322.25;;;4.94;44.04
75045;BME280;63614;56.026;35.960;2024-03-22T07:11:55;99329.56;;;5.07;43.97
75045;BME280;63614;56.026;35.960;2024-03-22T07:14:22;99328.03;;;5.22;43.64
75045;BME280;63614;56.026;35.960;2024-03-22T07:16:50;99331.81;;;5.36;43.47
75045;BME280;63614;56.026;35.960;2024-03-22T07:19:19;99326.84;;;5.43;43.63
75045;BME280;63614;56.026;35.960;2024-03-22T07:21:47;99320.44;;;5.55;43.68
75045;BME280;63614;56.026;35.960;2024-03-22T07:24:13;99314.84;;;5.68;43.42
75045;BME280;63614;56.026;35.960;2024-03-22T07:26:39;99315.00;;;5.83;42.73
75045;BME280;63614;56.026;35.960;2024-03-22T07:29:05;99317.13;;;5.88;42.62
75045;BME280;63614;56.026;35.960;2024-03-22T07:31:31;99304.75;;;5.99;42.31
75045;BME280;63614;56.026;35.960;2024-03-22T07:33:56;99307.47;;;6.06;42.39
75045;BME280;63614;56.026;35.960;2024-03-22T07:36:22;99305.25;;;6.20;42.28
75045;BME280;63614;56.026;35.960;2024-03-22T07:38:48;99304.44;;;6.27;41.95
75045;BME280;63614;56.026;35.960;2024-03-22T07:41:17;99304.59;;;6.34;42.07
75045;BME280;63614;56.026;35.960;2024-03-22T07:43:43;99301.06;;;6.43;42.37
75045;BME280;63614;56.026;35.960;2024-03-22T07:46:09;99296.38;;;6.47;41.80
75045;BME280;63614;56.026;35.960;2024-03-22T07:48:35;99288.91;;;6.52;41.79
75045;BME280;63614;56.026;35.960;2024-03-22T07:51:01;99283.25;;;6.65;41.75
75045;BME280;63614;56.026;35.960;2024-03-22T07:53:27;99266.28;;;6.70;41.16
75045;BME280;63614;56.026;35.960;2024-03-22T07:55:53;99278.22;;;6.80;41.04
75045;BME280;63614;56.026;35.960;2024-03-22T07:58:19;99281.78;;;6.79;41.26
75045;BME280;63614;56.026;35.960;2024-03-22T08:00:45;99269.63;;;6.96;41.16
75045;BME280;63614;56.026;35.960;2024-03-22T08:03:14;99271.69;;;7.00;40.36
75045;BME280;63614;56.026;35.960;2024-03-22T08:05:41;99260.16;;;7.11;40.36
75045;BME280;63614;56.026;35.960;2024-03-22T08:08:06;99251.88;;;7.24;40.37
75045;BME280;63614;56.026;35.960;2024-03-22T08:10:33;99254.28;;;7.25;39.71
75045;BME280;63614;56.026;35.960;2024-03-22T08:12:59;99242.00;;;7.27;40.47
75045;BME280;63614;56.026;35.960;2024-03-22T08:15:26;99240.13;;;7.44;39.39
75045;BME280;63614;56.026;35.960;2024-03-22T08:17:53;99237.81;;;7.50;38.99
75045;BME280;63614;56.026;35.960;2024-03-22T08:20:19;99226.94;;;7.54;39.47
75045;BME280;63614;56.026;35.960;2024-03-22T08:22:45;99225.81;;;7.57;38.67
75045;BME280;63614;56.026;35.960;2024-03-22T08:25:10;99219.44;;;7.68;38.76
75045;BME280;63614;56.026;35.960;2024-03-22T08:27:38;99226.91;;;7.86;39.24
75045;BME280;63614;56.026;35.960;2024-03-22T08:30:04;99214.81;;;8.01;39.38
75045;BME280;63614;56.026;35.960;2024-03-22T08:32:32;99222.03;;;8.06;38.63
75045;BME280;63614;56.026;35.960;2024-03-22T08:34:58;99215.47;;;8.18;38.92
75045;BME280;63614;56.026;35.960;2024-03-22T08:37:24;99215.38;;;8.11;39.09
75045;BME280;63614;56.026;35.960;2024-03-22T08:39:49;99225.75;;;8.26;39.75
75045;BME280;63614;56.026;35.960;2024-03-22T08:42:15;99218.22;;;8.16;40.00
75045;BME280;63614;56.026;35.960;2024-03-22T08:44:41;99223.16;;;8.26;39.79
75045;BME280;63614;56.026;35.960;2024-03-22T08:47:07;99217.75;;;8.36;39.23
75045;BME280;63614;56.026;35.960;2024-03-22T08:49:33;99219.19;;;8.53;38.35
75045;BME280;63614;56.026;35.960;2024-03-22T08:52:02;99220.91;;;8.61;38.20
75045;BME280;63614;56.026;35.960;2024-03-22T08:54:28;99228.16;;;8.66;37.81
75045;BME280;63614;56.026;35.960;2024-03-22T08:56:53;99227.16;;;8.67;38.98
75045;BME280;63614;56.026;35.960;2024-03-22T08:59:19;99225.81;;;8.71;38.58
75045;BME280;63614;56.026;35.960;2024-03-22T09:01:45;99213.94;;;8.77;39.11
75045;BME280;63614;56.026;35.960;2024-03-22T09:04:11;99205.16;;;8.93;39.77
75045;BME280;63614;56.026;35.960;2024-03-22T09:06:37;99206.78;;;8.94;39.04
75045;BME280;63614;56.026;35.960;2024-03-22T09:09:03;99199.69;;;9.02;39.77
75045;BME280;63614;56.026;35.960;2024-03-22T09:11:29;99207.28;;;9.04;39.04
75045;BME280;63614;56.026;35.960;2024-03-22T09:13:55;99205.78;;;8.95;38.50
75045;BME280;63614;56.026;35.960;2024-03-22T09:16:21;99201.47;;;9.02;37.56
75045;BME280;63614;56.026;35.960;2024-03-22T09:18:47;99201.75;;;8.92;37.77
75045;BME280;63614;56.026;35.960;2024-03-22T09:21:13;99201.31;;;9.03;37.26
75045;BME280;63614;56.026;35.960;2024-03-22T09:23:39;99197.38;;;8.93;38.35
75045;BME280;63614;56.026;35.960;2024-03-22T09:26:05;99184.94;;;8.88;37.71
75045;BME280;63614;56.026;35.960;2024-03-22T09:28:31;99180.56;;;8.88;37.99
75045;BME280;63614;56.026;35.960;2024-03-22T09:30:57;99175.53;;;8.87;38.36
75045;BME280;63614;56.026;35.960;2024-03-22T09:33:23;99178.06;;;8.95;38.00
75045;BME280;63614;56.026;35.960;2024-03-22T09:35:49;99173.59;;;8.89;38.03
75045;BME280;63614;56.026;35.960;2024-03-22T09:38:14;99174.28;;;8.98;37.77
75045;BME280;63614;56.026;35.960;2024-03-22T09:40:43;99170.53;;;9.00;37.63
75045;BME280;63614;56.026;35.960;2024-03-22T09:43:12;99162.09;;;8.98;37.32
75045;BME280;63614;56.026;35.960;2024-03-22T09:45:41;99160.41;;;9.05;37.16
75045;BME280;63614;56.026;35.960;2024-03-22T09:48:08;99161.91;;;9.00;37.56
75045;BME280;63614;56.026;35.960;2024-03-22T09:50:35;99168.31;;;8.97;37.14
75045;BME280;63614;56.026;35.960;2024-03-22T09:53:01;99149.88;;;8.92;37.29
75045;BME280;63614;56.026;35.960;2024-03-22T09:55:28;99148.69;;;8.95;37.19
75045;BME280;63614;56.026;35.960;2024-03-22T09:57:56;99146.19;;;9.01;37.37
75045;BME280;63614;56.026;35.960;2024-03-22T10:00:22;99150.81;;;9.06;37.36
75045;BME280;63614;56.026;35.960;2024-03-22T10:02:50;99153.22;;;9.07;37.20
75045;BME280;63614;56.026;35.960;2024-03-22T10:05:16;99147.38;;;8.99;37.39
75045;BME280;63614;56.026;35.960;2024-03-22T10:07:47;99139.59;;;8.99;36.39
75045;BME280;63614;56.026;35.960;2024-03-22T10:10:12;99149.22;;;9.05;36.93
75045;BME280;63614;56.026;35.960;2024-03-22T10:12:39;99144.25;;;8.88;36.65
75045;BME280;63614;56.026;35.960;2024-03-22T10:15:06;99125.59;;;8.78;36.96
75045;BME280;63614;56.026;35.960;2024-03-22T10:17:35;99120.41;;;8.78;37.36
75045;BME280;63614;56.026;35.960;2024-03-22T10:20:01;99114.06;;;8.81;36.94
75045;BME280;63614;56.026;35.960;2024-03-22T10:22:29;99113.41;;;8.94;37.01
75045;BME280;63614;56.026;35.960;2024-03-22T10:24:55;99105.28;;;8.82;35.85
75045;BME280;63614;56.026;35.960;2024-03-22T10:27:27;99108.41;;;8.77;36.82
75045;BME280;63614;56.026;35.960;2024-03-22T10:29:54;99089.16;;;8.65;36.65
75045;BME280;63614;56.026;35.960;2024-03-22T10:32:20;99094.22;;;8.73;37.26
75045;BME280;63614;56.026;35.960;2024-03-22T10:34:46;99086.06;;;8.76;36.64
75045;BME280;63614;56.026;35.960;2024-03-22T10:37:22;99082.34;;;8.85;35.92
75045;BME280;63614;56.026;35.960;2024-03-22T10:39:50;99076.44;;;8.70;35.75
75045;BME280;63614;56.026;35.960;2024-03-22T10:42:17;99058.41;;;8.62;36.15
75045;BME280;63614;56.026;35.960;2024-03-22T10:44:44;99061.06;;;8.68;36.19
75045;BME280;63614;56.026;35.960;2024-03-22T10:47:10;99058.16;;;8.78;36.51
75045;BME280;63614;56.026;35.960;2024-03-22T10:49:37;99055.88;;;8.90;37.03
75045;BME280;63614;56.026;35.960;2024-03-22T10:52:06;99046.56;;;8.96;37.17
75045;BME280;63614;56.026;35.960;2024-03-22T10:54:39;99041.31;;;8.89;36.33
75045;BME280;63614;56.026;35.960;2024-03-22T10:57:12;99026.84;;;9.01;36.81
75045;BME280;63614;56.026;35.960;2024-03-22T10:59:41;99019.88;;;8.80;35.34
75045;BME280;63614;56.026;35.960;2024-03-22T11:02:10;99017.53;;;8.85;36.51
75045;BME280;63614;56.026;35.960;2024-03-22T11:04:37;99008.16;;;8.84;35.90
75045;BME280;63614;56.026;35.960;2024-03-22T11:07:03;99003.94;;;8.83;37.15
75045;BME280;63614;56.026;35.960;2024-03-22T11:09:29;99006.78;;;8.88;36.50
75045;BME280;63614;56.026;35.960;2024-03-22T11:11:56;98998.03;;;8.89;36.21
75045;BME280;63614;56.026;35.960;2024-03-22T11:14:27;98993.03;;;8.88;36.43
75045;BME280;63614;56.026;35.960;2024-03-22T11:16:54;98992.34;;;8.79;36.20
75045;BME280;63614;56.026;35.960;2024-03-22T11:19:20;98986.22;;;8.87;36.60
75045;BME280;63614;56.026;35.960;2024-03-22T11:21:45;98986.59;;;8.84;36.92
75045;BME280;63614;56.026;35.960;2024-03-22T11:24:11;98977.63;;;8.86;37.01
75045;BME280;63614;56.026;35.960;2024-03-22T11:26:37;98976.78;;;8.79;36.18
75045;BME280;63614;56.026;35.960;2024-03-22T11:29:04;98978.00;;;8.83;36.48
75045;BME280;63614;56.026;35.960;2024-03-22T11:31:30;98977.63;;;8.86;35.90
75045;BME280;63614;56.026;35.960;2024-03-22T11:33:56;98967.69;;;8.90;35.56
75045;BME280;63614;56.026;35.960;2024-03-22T11:36:23;98965.41;;;8.80;36.41
75045;BME280;63614;56.026;35.960;2024-03-22T11:38:49;98963.13;;;8.92;35.95
75045;BME280;63614;56.026;35.960;2024-03-22T11:41:18;98956.34;;;8.91;35.64
75045;BME280;63614;56.026;35.960;2024-03-22T11:43:46;98956.16;;;8.93;35.95
75045;BME280;63614;56.026;35.960;2024-03-22T11:46:14;98953.78;;;8.98;35.93
75045;BME280;63614;56.026;35.960;2024-03-22T11:51:25;98951.94;;;8.91;36.06
75045;BME280;63614;56.026;35.960;2024-03-22T11:53:51;98949.84;;;9.02;35.84
75045;BME280;63614;56.026;35.960;2024-03-22T11:56:19;98948.03;;;9.02;36.53
75045;BME280;63614;56.026;35.960;2024-03-22T11:59:04;98934.75;;;9.12;35.97
75045;BME280;63614;56.026;35.960;2024-03-22T12:01:30;98939.84;;;9.27;35.94
75045;BME280;63614;56.026;35.960;2024-03-22T12:03:56;98928.09;;;9.31;35.77
75045;BME280;63614;56.026;35.960;2024-03-22T12:06:22;98926.47;;;9.30;35.67
75045;BME280;63614;56.026;35.960;2024-03-22T12:08:48;98927.44;;;9.22;36.18
75045;BME280;63614;56.026;35.960;2024-03-22T12:11:13;98933.47;;;9.30;35.66
75045;BME280;63614;56.026;35.960;2024-03-22T12:13:39;98926.72;;;9.35;36.59
75045;BME280;63614;56.026;35.960;2024-03-22T12:16:05;98919.34;;;9.39;35.86
75045;BME280;63614;56.026;35.960;2024-03-22T12:18:33;98914.00;;;9.47;34.78
75045;BME280;63614;56.026;35.960;2024-03-22T12:21:00;98908.59;;;9.42;35.26
75045;BME280;63614;56.026;35.960;2024-03-22T12:23:26;98896.84;;;9.11;35.98
75045;BME280;63614;56.026;35.960;2024-03-22T12:25:52;98900.84;;;9.20;36.37
75045;BME280;63614;56.026;35.960;2024-03-22T12:28:20;98894.31;;;9.24;36.78
75045;BME280;63614;56.026;35.960;2024-03-22T12:30:47;98886.34;;;9.26;34.82
75045;BME280;63614;56.026;35.960;2024-03-22T12:33:13;98884.34;;;9.28;35.39
75045;BME280;63614;56.026;35.960;2024-03-22T12:35:39;98886.31;;;9.19;35.25
75045;BME280;63614;56.026;35.960;2024-03-22T12:38:06;98885.91;;;9.22;35.22
75045;BME280;63614;56.026;35.960;2024-03-22T12:40:32;98875.53;;;9.22;35.38
75045;BME280;63614;56.026;35.960;2024-03-22T12:42:59;98878.34;;;9.27;35.24
75045;BME280;63614;56.026;35.960;2024-03-22T12:45:25;98873.16;;;9.27;35.10
75045;BME280;63614;56.026;35.960;2024-03-22T12:47:51;98854.41;;;9.25;35.53
75045;BME280;63614;56.026;35.960;2024-03-22T12:50:18;98861.00;;;9.35;35.53
75045;BME280;63614;56.026;35.960;2024-03-22T12:52:44;98853.41;;;9.33;35.77
75045;BME280;63614;56.026;35.960;2024-03-22T12:55:10;98846.63;;;9.25;35.00